createdAt,value
2018-11-14T00:01:26.638Z,7.70
2018-11-14T00:03:55.348Z,7.70
2018-11-14T00:06:23.648Z,7.80
2018-11-14T00:08:52.545Z,7.70
2018-11-14T00:11:20.946Z,7.70
2018-11-14T00:13:49.268Z,7.80
2018-11-14T00:16:17.855Z,7.70
2018-11-14T00:18:46.516Z,7.70
2018-11-14T00:21:14.840Z,7.50
2018-11-14T00:23:43.175Z,7.40
2018-11-14T00:26:12.075Z,7.30
2018-11-14T00:28:40.414Z,7.30
2018-11-14T00:31:09.240Z,7.30
2018-11-14T00:33:38.222Z,7.40
2018-11-14T00:36:06.856Z,7.40
2018-11-14T00:38:36.075Z,7.50
2018-11-14T00:41:04.382Z,7.50
2018-11-14T00:43:32.671Z,7.60
2018-11-14T00:46:01.207Z,7.60
2018-11-14T00:48:29.534Z,7.60
2018-11-14T00:50:57.853Z,7.70
2018-11-14T00:53:26.350Z,7.70
2018-11-14T00:55:57.437Z,7.70
2018-11-14T00:58:26.614Z,7.80
2018-11-14T01:00:56.241Z,7.90
2018-11-14T01:03:24.993Z,7.80
2018-11-14T01:05:53.437Z,7.80
2018-11-14T01:08:22.350Z,7.80
2018-11-14T01:10:51.096Z,7.90
2018-11-14T01:13:20.522Z,7.90
2018-11-14T01:15:48.597Z,7.80
2018-11-14T01:18:18.864Z,7.90
2018-11-14T01:20:47.195Z,7.90
2018-11-14T01:23:15.497Z,7.90
2018-11-14T01:25:43.809Z,7.90
2018-11-14T01:28:14.405Z,7.80
2018-11-14T01:30:43.038Z,7.90
2018-11-14T01:33:12.274Z,7.90
2018-11-14T01:35:42.030Z,7.90
2018-11-14T01:38:12.838Z,7.70
2018-11-14T01:40:41.166Z,7.70
2018-11-14T01:43:09.486Z,7.80
2018-11-14T01:45:37.930Z,7.80
2018-11-14T01:48:07.235Z,7.80
2018-11-14T01:50:38.676Z,7.80
2018-11-14T01:53:06.993Z,7.70
2018-11-14T01:55:35.382Z,7.80
2018-11-14T01:58:06.662Z,7.80
2018-11-14T02:00:36.103Z,7.90
2018-11-14T02:03:04.937Z,7.80
2018-11-14T02:05:33.250Z,7.80
2018-11-14T02:08:03.379Z,7.90
2018-11-14T02:10:34.674Z,7.90
2018-11-14T02:13:03.307Z,7.90
2018-11-14T02:15:32.687Z,7.90
2018-11-14T02:18:01.412Z,7.90
2018-11-14T02:20:30.266Z,7.80
2018-11-14T02:23:02.601Z,7.90
2018-11-14T02:25:31.909Z,7.90
2018-11-14T02:28:01.283Z,7.90
2018-11-14T02:30:29.692Z,7.80
2018-11-14T02:32:58.688Z,7.90
2018-11-14T02:35:29.011Z,7.90
2018-11-14T02:37:57.761Z,7.90
2018-11-14T02:40:26.062Z,7.90
2018-11-14T02:42:54.376Z,7.90
2018-11-14T02:45:22.757Z,8.00
2018-11-14T02:47:51.080Z,7.90
2018-11-14T02:50:19.656Z,7.80
2018-11-14T02:52:48.214Z,7.90
2018-11-14T02:55:17.389Z,7.80
2018-11-14T02:57:46.896Z,7.80
2018-11-14T03:00:18.096Z,7.80
2018-11-14T03:02:46.485Z,7.90
2018-11-14T03:05:15.870Z,7.70
2018-11-14T03:07:45.437Z,7.60
2018-11-14T03:10:16.695Z,7.60
2018-11-14T03:12:45.014Z,7.60
2018-11-14T03:15:15.446Z,7.60
2018-11-14T03:17:45.305Z,7.70
2018-11-14T03:20:17.298Z,7.80
2018-11-14T03:22:45.717Z,7.70
2018-11-14T03:25:14.614Z,7.80
2018-11-14T03:27:42.966Z,7.90
2018-11-14T03:30:13.187Z,7.90
2018-11-14T03:32:42.275Z,7.90
2018-11-14T03:35:11.686Z,7.70
2018-11-14T03:37:40.475Z,7.70
2018-11-14T03:40:10.476Z,7.60
2018-11-14T03:42:38.813Z,7.70
2018-11-14T03:45:08.887Z,7.70
2018-11-14T03:47:37.322Z,7.70
2018-11-14T03:50:06.190Z,7.80
2018-11-14T03:52:34.471Z,7.80
2018-11-14T03:55:02.754Z,7.80
2018-11-14T03:57:31.591Z,7.70
2018-11-14T04:00:00.629Z,7.70
2018-11-14T04:02:29.217Z,7.70
2018-11-14T04:04:57.916Z,7.70
2018-11-14T04:07:26.798Z,7.70
2018-11-14T04:09:55.106Z,7.70
2018-11-14T04:12:23.503Z,7.60
2018-11-14T04:14:52.362Z,7.70
2018-11-14T04:17:21.471Z,7.70
2018-11-14T04:19:49.748Z,7.70
2018-11-14T04:22:18.118Z,7.70
2018-11-14T04:24:46.669Z,7.60
2018-11-14T04:27:15.012Z,7.60
2018-11-14T04:29:43.396Z,7.50
2018-11-14T04:32:11.735Z,7.50
2018-11-14T04:34:40.916Z,7.50
2018-11-14T04:37:09.589Z,7.40
2018-11-14T04:39:37.863Z,7.50
2018-11-14T04:42:06.161Z,7.50
2018-11-14T04:44:35.076Z,7.50
2018-11-14T04:47:03.438Z,7.50
2018-11-14T04:49:31.728Z,7.50
2018-11-14T04:52:00.249Z,7.60
2018-11-14T04:54:28.981Z,7.60
2018-11-14T04:56:57.355Z,7.60
2018-11-14T04:59:26.147Z,7.70
2018-11-14T05:01:54.938Z,7.70
2018-11-14T05:04:23.670Z,7.60
2018-11-14T05:06:52.082Z,7.70
2018-11-14T05:09:20.789Z,7.70
2018-11-14T05:11:50.081Z,7.60
2018-11-14T05:14:18.365Z,7.70
2018-11-14T05:16:46.693Z,7.80
2018-11-14T05:19:15.418Z,7.70
2018-11-14T05:21:43.755Z,7.70
2018-11-14T05:24:12.105Z,7.70
2018-11-14T05:26:40.446Z,7.80
2018-11-14T05:29:08.840Z,7.80
2018-11-14T05:31:37.224Z,7.70
2018-11-14T05:34:06.418Z,7.70
2018-11-14T05:36:35.090Z,7.60
2018-11-14T05:39:03.762Z,7.60
2018-11-14T05:41:32.056Z,7.60
2018-11-14T05:44:00.386Z,7.70
2018-11-14T05:46:29.303Z,7.80
2018-11-14T05:48:57.593Z,7.80
2018-11-14T05:51:25.944Z,7.90
2018-11-14T05:53:54.704Z,7.90
2018-11-14T05:56:23.005Z,7.90
2018-11-14T05:58:51.826Z,7.90
2018-11-14T06:01:20.117Z,7.80
2018-11-14T06:03:48.922Z,7.90
2018-11-14T06:06:17.241Z,7.70
2018-11-14T06:08:46.103Z,7.80
2018-11-14T06:11:14.545Z,7.80
2018-11-14T06:13:42.924Z,7.80
2018-11-14T06:16:11.296Z,7.80
2018-11-14T06:18:40.054Z,7.80
2018-11-14T06:21:08.471Z,7.80
2018-11-14T06:23:36.884Z,7.70
2018-11-14T06:26:05.224Z,7.70
2018-11-14T06:28:33.602Z,7.80
2018-11-14T06:31:01.985Z,7.80
2018-11-14T06:33:30.915Z,7.80
2018-11-14T06:35:59.805Z,7.90
2018-11-14T06:38:28.411Z,7.80
2018-11-14T06:40:56.725Z,7.90
2018-11-14T06:43:25.755Z,7.80
2018-11-14T06:45:54.474Z,7.70
2018-11-14T06:48:22.777Z,7.60
2018-11-14T06:50:51.054Z,7.70
2018-11-14T06:53:19.840Z,7.70
2018-11-14T06:55:48.168Z,7.80
2018-11-14T06:58:16.948Z,7.90
2018-11-14T07:00:45.182Z,7.90
2018-11-14T07:03:14.065Z,7.80
2018-11-14T07:05:42.433Z,7.90
2018-11-14T07:08:11.466Z,8.00
2018-11-14T07:10:40.242Z,8.00
2018-11-14T07:13:10.660Z,7.90
2018-11-14T07:15:39.558Z,7.90
2018-11-14T07:18:10.286Z,7.80
2018-11-14T07:20:40.010Z,7.80
2018-11-14T07:23:08.384Z,8.00
2018-11-14T07:25:36.746Z,7.90
2018-11-14T07:28:05.202Z,8.10
2018-11-14T07:30:34.218Z,8.10
2018-11-14T07:33:04.933Z,8.10
2018-11-14T07:35:33.853Z,8.10
2018-11-14T07:38:50.771Z,8.20
2018-11-14T07:41:23.755Z,8.00
2018-11-14T07:43:52.116Z,8.00
2018-11-14T07:46:21.594Z,7.90
2018-11-14T07:48:51.429Z,8.00
2018-11-14T07:51:19.793Z,8.00
2018-11-14T07:53:48.114Z,8.00
2018-11-14T07:56:17.238Z,8.10
2018-11-14T07:58:46.239Z,8.00
2018-11-14T08:01:14.718Z,8.00
2018-11-14T08:03:43.444Z,7.90
2018-11-14T08:06:11.774Z,7.90
2018-11-14T08:08:40.944Z,8.00
2018-11-14T08:11:10.161Z,8.00
2018-11-14T08:13:39.951Z,8.20
2018-11-14T08:16:08.305Z,8.30
2018-11-14T08:18:37.126Z,8.10
2018-11-14T08:21:06.698Z,8.10
2018-11-14T08:23:35.083Z,8.00
2018-11-14T08:26:03.627Z,8.10
2018-11-14T08:28:32.434Z,8.10
2018-11-14T08:31:00.740Z,8.30
2018-11-14T08:33:29.461Z,8.40
2018-11-14T08:35:57.800Z,8.40
2018-11-14T08:38:26.501Z,8.40
2018-11-14T08:40:54.853Z,8.40
2018-11-14T08:43:23.732Z,8.30
2018-11-14T08:45:52.378Z,8.30
2018-11-14T08:48:21.077Z,8.20
2018-11-14T08:50:49.770Z,8.30
2018-11-14T08:53:18.449Z,8.40
2018-11-14T08:55:46.939Z,8.40
2018-11-14T08:58:16.450Z,8.40
2018-11-14T09:00:45.448Z,8.60
2018-11-14T09:03:14.981Z,8.70
2018-11-14T09:05:43.272Z,8.80
2018-11-14T09:08:11.630Z,8.70
2018-11-14T09:10:39.974Z,8.80
2018-11-14T09:13:13.053Z,8.80
2018-11-14T09:15:41.448Z,8.80
2018-11-14T09:18:10.280Z,8.80
2018-11-14T09:20:38.640Z,8.60
2018-11-14T09:23:07.190Z,8.50
2018-11-14T09:25:35.654Z,8.70
2018-11-14T09:28:05.065Z,8.80
2018-11-14T09:30:33.347Z,8.80
2018-11-14T09:33:01.787Z,8.80
2018-11-14T09:35:30.450Z,8.90
2018-11-14T09:38:00.357Z,8.70
2018-11-14T09:40:29.862Z,8.90
2018-11-14T09:42:58.141Z,9.00
2018-11-14T09:45:28.249Z,9.00
2018-11-14T09:47:56.680Z,9.00
2018-11-14T09:50:26.212Z,9.00
2018-11-14T09:52:55.917Z,9.00
2018-11-14T09:55:24.300Z,8.80
2018-11-14T09:57:52.681Z,8.70
2018-11-14T10:00:22.629Z,8.80
2018-11-14T10:02:54.577Z,8.90
2018-11-14T10:05:23.723Z,8.90
2018-11-14T10:07:52.205Z,8.90
2018-11-14T10:10:21.475Z,8.80
2018-11-14T10:12:49.892Z,8.80
2018-11-14T10:17:41.285Z,8.90
2018-11-14T10:20:11.670Z,9.00
2018-11-14T10:22:40.750Z,9.10
2018-11-14T10:54:52.185Z,10.30
2018-11-14T10:57:21.799Z,10.30
2018-11-14T10:59:50.409Z,10.10
2018-11-14T11:02:23.976Z,10.10
2018-11-14T11:07:05.044Z,10.10
2018-11-14T11:09:39.315Z,10.10
2018-11-14T11:12:12.906Z,9.80
2018-11-14T11:14:46.561Z,9.70
2018-11-14T11:17:25.664Z,9.80
2018-11-14T11:19:54.046Z,9.80
2018-11-14T11:22:22.818Z,9.80
2018-11-14T11:24:51.751Z,10.10
2018-11-14T11:27:20.039Z,10.10
2018-11-14T11:29:48.394Z,10.10
2018-11-14T11:32:16.682Z,10.00
2018-11-14T11:34:45.395Z,10.00
2018-11-14T11:37:14.320Z,10.10
2018-11-14T11:39:42.722Z,10.20
2018-11-14T11:42:11.857Z,10.20
2018-11-14T11:44:40.874Z,10.60
2018-11-14T11:47:09.150Z,11.10
2018-11-14T11:49:37.430Z,11.70
2018-11-14T11:52:05.885Z,11.70
2018-11-14T11:54:34.183Z,11.90
2018-11-14T11:57:02.614Z,12.10
2018-11-14T11:59:30.957Z,12.20
2018-11-14T12:01:59.641Z,12.10
2018-11-14T12:04:28.265Z,12.10
2018-11-14T12:06:56.586Z,12.10
2018-11-14T12:09:24.932Z,11.70
2018-11-14T12:11:53.241Z,11.50
2018-11-14T12:14:22.233Z,11.70
2018-11-14T12:16:50.581Z,11.20
2018-11-14T12:19:19.919Z,11.00
2018-11-14T12:21:48.808Z,10.80
2018-11-14T12:24:17.150Z,10.60
2018-11-14T12:26:45.561Z,10.80
2018-11-14T12:29:13.937Z,11.00
2018-11-14T12:31:42.307Z,11.10
2018-11-14T12:34:11.211Z,11.00
2018-11-14T12:36:40.151Z,10.90
2018-11-14T12:39:09.193Z,11.00
2018-11-14T12:41:37.574Z,11.20
2018-11-14T12:44:05.966Z,11.30
2018-11-14T12:46:34.606Z,11.20
2018-11-14T12:49:03.004Z,11.10
2018-11-14T12:51:31.381Z,11.10
2018-11-14T12:54:00.478Z,11.10
2018-11-14T12:56:28.765Z,10.90
2018-11-14T12:58:57.115Z,10.60
2018-11-14T13:01:25.611Z,10.60
2018-11-14T13:03:54.229Z,10.60
2018-11-14T13:06:23.206Z,10.60
2018-11-14T13:08:51.534Z,10.60
2018-11-14T13:11:19.873Z,10.60
2018-11-14T13:13:49.636Z,10.70
2018-11-14T13:16:18.579Z,10.50
2018-11-14T13:18:47.446Z,10.70
2018-11-14T13:21:15.797Z,10.80
2018-11-14T13:23:44.154Z,10.90
2018-11-14T13:26:12.497Z,10.80
2018-11-14T13:28:40.829Z,10.60
2018-11-14T13:31:09.189Z,10.50
2018-11-14T13:33:38.013Z,10.40
2018-11-14T13:36:06.320Z,10.40
2018-11-14T13:38:35.280Z,10.20
2018-11-14T13:41:03.594Z,10.30
2018-11-14T13:43:31.889Z,10.30
2018-11-14T13:46:00.861Z,10.30
2018-11-14T13:48:29.170Z,10.20
2018-11-14T13:50:57.685Z,10.20
2018-11-14T13:53:25.896Z,10.10
2018-11-14T13:55:54.351Z,10.00
2018-11-14T13:58:22.958Z,9.90
2018-11-14T14:00:51.334Z,10.00
2018-11-14T14:03:19.992Z,10.10
2018-11-14T14:05:48.333Z,10.10
2018-11-14T14:08:16.611Z,10.10
2018-11-14T14:10:45.386Z,9.90
2018-11-14T14:13:14.219Z,9.80
2018-11-14T14:15:42.526Z,9.80
2018-11-14T14:18:11.393Z,9.70
2018-11-14T14:20:39.720Z,9.70
2018-11-14T14:23:08.037Z,9.80
2018-11-14T14:25:36.373Z,9.80
2018-11-14T14:28:04.669Z,9.50
2018-11-14T14:30:33.075Z,9.40
2018-11-14T14:33:01.395Z,9.30
2018-11-14T14:35:30.628Z,9.40
2018-11-14T14:37:59.445Z,9.40
2018-11-14T14:40:28.772Z,9.40
2018-11-14T14:42:57.061Z,9.50
2018-11-14T14:45:26.750Z,9.50
2018-11-14T14:47:55.130Z,9.50
2018-11-14T14:50:23.428Z,9.50
2018-11-14T14:52:51.775Z,9.50
2018-11-14T14:55:22.232Z,9.30
2018-11-14T14:57:50.578Z,9.20
2018-11-14T15:00:20.424Z,9.20
2018-11-14T15:02:48.943Z,9.10
2018-11-14T15:05:17.631Z,9.00
2018-11-14T15:07:46.689Z,9.00
2018-11-14T15:10:18.523Z,9.00
2018-11-14T15:12:47.047Z,8.90
2018-11-14T15:15:15.814Z,8.80
2018-11-14T15:17:45.095Z,8.70
2018-11-14T15:20:15.564Z,8.60
2018-11-14T15:22:44.028Z,8.50
2018-11-14T15:25:14.509Z,8.40
2018-11-14T15:27:43.236Z,8.30
2018-11-14T15:30:15.476Z,8.30
2018-11-14T15:32:43.887Z,8.30
2018-11-14T15:35:13.368Z,8.10
2018-11-14T15:37:42.160Z,8.20
2018-11-14T15:40:12.207Z,8.10
2018-11-14T15:42:40.656Z,8.10
2018-11-14T15:45:11.676Z,7.90
2018-11-14T15:47:40.055Z,7.80
2018-11-14T15:50:11.510Z,7.80
2018-11-14T15:52:40.134Z,7.80
2018-11-14T15:55:09.693Z,7.80
2018-11-14T15:57:38.817Z,7.70
2018-11-14T16:00:11.055Z,7.70
2018-11-14T16:02:39.758Z,7.70
2018-11-14T16:05:10.921Z,7.70
2018-11-14T16:07:40.348Z,7.60
2018-11-14T16:10:09.805Z,7.50
2018-11-14T16:12:39.206Z,7.50
2018-11-14T16:15:08.636Z,7.50
2018-11-14T16:17:37.851Z,7.40
2018-11-14T16:20:07.413Z,7.40
2018-11-14T16:22:36.562Z,7.30
2018-11-14T16:25:05.763Z,7.30
2018-11-14T16:27:34.326Z,7.30
2018-11-14T16:30:02.690Z,7.30
2018-11-14T16:32:31.050Z,7.30
2018-11-14T16:34:59.773Z,7.20
2018-11-14T16:37:28.627Z,7.20
2018-11-14T16:39:56.962Z,7.20
2018-11-14T16:42:25.277Z,7.10
2018-11-14T16:44:55.018Z,7.10
2018-11-14T16:47:23.307Z,7.10
2018-11-14T16:49:51.643Z,7.10
2018-11-14T16:52:20.021Z,7.00
2018-11-14T16:54:48.334Z,7.00
2018-11-14T16:57:17.085Z,7.00
2018-11-14T16:59:46.074Z,6.90
2018-11-14T17:02:14.457Z,6.90
2018-11-14T17:04:43.173Z,6.90
2018-11-14T17:07:11.551Z,6.90
2018-11-14T17:09:39.826Z,6.90
2018-11-14T17:14:45.813Z,6.80
2018-11-14T17:17:14.585Z,6.90
2018-11-14T17:19:42.880Z,6.90
2018-11-14T17:22:11.150Z,6.80
2018-11-14T17:24:39.464Z,6.80
2018-11-14T17:27:08.525Z,6.80
2018-11-14T17:29:37.207Z,6.70
2018-11-14T17:32:05.780Z,6.60
2018-11-14T17:34:35.394Z,6.60
2018-11-14T17:37:04.776Z,6.60
2018-11-14T17:39:33.472Z,6.60
2018-11-14T17:42:02.453Z,6.50
2018-11-14T17:44:30.994Z,6.40
2018-11-14T17:47:00.809Z,6.40
2018-11-14T17:49:29.139Z,6.50
2018-11-14T17:51:57.598Z,6.50
2018-11-14T17:54:28.122Z,6.50
2018-11-14T17:56:56.440Z,6.60
2018-11-14T17:59:24.859Z,6.70
2018-11-14T18:01:53.228Z,6.80
2018-11-14T18:04:25.075Z,6.80
2018-11-14T18:06:53.435Z,6.90
2018-11-14T18:09:21.740Z,6.90
2018-11-14T18:11:50.483Z,6.90
2018-11-14T18:14:19.289Z,7.10
2018-11-14T18:16:48.214Z,7.10
2018-11-14T18:19:16.902Z,7.30
2018-11-14T18:21:45.233Z,7.20
2018-11-14T18:24:13.536Z,7.20
2018-11-14T18:26:42.755Z,7.30
2018-11-14T18:29:11.166Z,7.30
2018-11-14T18:31:39.614Z,7.30
2018-11-14T18:34:14.770Z,7.40
2018-11-14T18:36:43.442Z,7.40
2018-11-14T18:39:13.454Z,7.20
2018-11-14T18:41:41.968Z,7.20
2018-11-14T18:44:10.351Z,7.10
2018-11-14T18:46:39.305Z,7.10
2018-11-14T18:49:07.639Z,7.20
2018-11-14T18:51:35.963Z,7.20
2018-11-14T18:54:04.892Z,7.20
2018-11-14T18:56:34.484Z,7.10
2018-11-14T18:59:02.877Z,7.20
2018-11-14T19:01:31.194Z,7.20
2018-11-14T19:04:00.032Z,7.10
2018-11-14T19:06:28.990Z,7.00
2018-11-14T19:08:57.306Z,7.00
2018-11-14T19:11:26.035Z,7.10
2018-11-14T19:13:54.842Z,7.20
2018-11-14T19:16:23.185Z,7.10
2018-11-14T19:18:52.120Z,6.90
2018-11-14T19:21:20.420Z,7.10
2018-11-14T19:23:48.774Z,7.20
2018-11-14T19:26:17.174Z,7.30
2018-11-14T19:28:45.963Z,7.30
2018-11-14T19:31:14.801Z,7.30
2018-11-14T19:33:43.608Z,7.20
2018-11-14T19:36:12.098Z,7.10
2018-11-14T19:38:41.669Z,7.20
2018-11-14T19:41:10.217Z,7.30
2018-11-14T19:43:38.702Z,7.20
2018-11-14T19:46:08.418Z,7.20
2018-11-14T19:48:36.730Z,7.30
2018-11-14T19:51:05.646Z,7.30
2018-11-14T19:53:33.983Z,7.30
2018-11-14T19:56:03.415Z,7.30
2018-11-14T19:58:31.826Z,7.30
2018-11-14T20:01:00.885Z,7.30
2018-11-14T20:03:30.025Z,7.30
2018-11-14T20:05:58.862Z,7.30
2018-11-14T20:08:27.239Z,7.20
2018-11-14T20:10:55.567Z,7.10
2018-11-14T20:13:24.617Z,7.10
2018-11-14T20:15:54.279Z,7.20
2018-11-14T20:18:24.436Z,7.20
2018-11-14T20:20:52.895Z,7.20
2018-11-14T20:23:21.273Z,7.00
2018-11-14T20:25:49.879Z,7.00
2018-11-14T20:28:19.623Z,7.00
2018-11-14T20:30:47.992Z,7.20
2018-11-14T20:33:17.064Z,7.00
2018-11-14T20:35:46.441Z,7.10
2018-11-14T20:38:15.326Z,7.10
2018-11-14T20:40:43.835Z,7.00
2018-11-14T20:43:12.924Z,7.00
2018-11-14T20:45:42.178Z,7.00
2018-11-14T20:48:11.605Z,7.10
2018-11-14T20:50:40.954Z,7.20
2018-11-14T20:53:09.365Z,7.30
2018-11-14T20:55:37.761Z,7.30
2018-11-14T20:58:06.490Z,7.30
2018-11-14T21:00:36.795Z,7.00
2018-11-14T21:03:07.382Z,7.00
2018-11-14T21:05:35.750Z,7.10
2018-11-14T21:08:04.176Z,7.10
2018-11-14T21:10:35.094Z,7.20
2018-11-14T21:13:04.024Z,7.10
2018-11-14T21:15:34.418Z,7.00
2018-11-14T21:18:03.579Z,6.80
2018-11-14T21:20:31.996Z,7.00
2018-11-14T21:23:00.484Z,6.90
2018-11-14T21:25:28.895Z,7.00
2018-11-14T21:27:57.995Z,7.00
2018-11-14T21:30:27.593Z,7.10
2018-11-14T21:32:55.857Z,7.00
2018-11-14T21:35:28.429Z,7.00
2018-11-14T21:37:58.654Z,7.00
2018-11-14T21:40:27.237Z,7.10
2018-11-14T21:42:55.672Z,7.10
2018-11-14T21:45:25.733Z,7.10
2018-11-14T21:47:59.674Z,7.00
2018-11-14T21:50:28.998Z,7.10
2018-11-14T21:52:57.763Z,7.10
2018-11-14T21:55:26.271Z,7.10
2018-11-14T21:57:55.191Z,7.20
2018-11-14T22:00:25.623Z,7.20
2018-11-14T22:02:56.091Z,7.20
2018-11-14T22:05:24.503Z,7.20
2018-11-14T22:07:52.826Z,7.00
2018-11-14T22:10:22.412Z,6.90
2018-11-14T22:12:51.344Z,7.00
2018-11-14T22:15:22.255Z,7.00
2018-11-14T22:17:52.597Z,7.00
2018-11-14T22:20:22.609Z,7.00
2018-11-14T22:22:51.370Z,6.90
2018-11-14T22:25:21.327Z,7.00
2018-11-14T22:27:50.130Z,7.00
2018-11-14T22:30:20.976Z,6.90
2018-11-14T22:32:50.106Z,6.70
2018-11-14T22:35:20.189Z,6.80
2018-11-14T22:37:49.180Z,6.90
2018-11-14T22:40:18.849Z,6.80
2018-11-14T22:42:47.430Z,6.80
2018-11-14T22:45:18.944Z,6.90
2018-11-14T22:47:48.222Z,6.70
2018-11-14T22:50:17.849Z,6.60
2018-11-14T22:52:46.883Z,6.70
2018-11-14T22:55:16.515Z,6.90
2018-11-14T22:57:46.098Z,6.90
2018-11-14T23:00:32.518Z,6.90
2018-11-14T23:03:02.981Z,7.00
2018-11-14T23:05:31.303Z,6.90
2018-11-14T23:07:59.990Z,6.90
2018-11-14T23:10:28.623Z,6.90
2018-11-14T23:12:57.292Z,7.10
2018-11-14T23:15:26.540Z,7.00
2018-11-14T23:17:55.773Z,7.00
2018-11-14T23:20:24.173Z,6.90
2018-11-14T23:22:53.330Z,6.80
2018-11-14T23:25:22.167Z,6.90
2018-11-14T23:27:52.155Z,7.00
2018-11-14T23:30:21.950Z,7.00
2018-11-14T23:32:51.326Z,6.90
2018-11-14T23:35:23.433Z,6.80
2018-11-14T23:37:56.707Z,6.80
2018-11-14T23:40:25.566Z,6.90
2018-11-14T23:42:53.916Z,6.90
2018-11-14T23:45:23.861Z,7.00
2018-11-14T23:47:52.907Z,7.10
2018-11-14T23:50:25.367Z,7.00
2018-11-14T23:52:54.923Z,6.90
2018-11-14T23:55:24.586Z,6.80
2018-11-14T23:57:52.882Z,6.70
